Flight Track Log - Related Links

Times and Time Zones

All times are in EDT time to prevent confusion due to time zone crossing. See the N441SX flight status page for this flight to view local times or setup timezone preferences in your user account.


Time Position Orientation Groundspeed Altitude Reporting Facility
EDT Latitude Longitude Course Direction KTS MPH feet Rate Location/Type
Mon 04:46:09 PM 30.1375 -90.0694 300° West 182 209 4,900  Level Houston Center
Mon 04:47:20 PM 30.1514 -90.1217 287° West 174 200 7,000 1,714 Climbing Houston Center
Mon 04:48:22 PM 30.1589 -90.1794 279° West 180 207 8,700 1,839 Climbing Houston Center
Mon 04:49:24 PM 30.1717 -90.2486 282° West 182 209 10,800 1,839 Climbing Houston Center
Mon 04:50:26 PM 30.1994 -90.3017 301° West 189 217 12,500 1,452 Climbing Houston Center
Mon 04:51:00 PM 30.3299 -90.5431 300° West  Level FlightAware Approximate
Mon 04:51:28 PM 30.2336 -90.3425 314° West 180 207 13,800  Level Houston Center
Mon 04:52:30 PM 30.2756 -90.3878 317° Northwest 199 229 15,000 720 Climbing Houston Center
Mon 04:53:33 PM 30.2917 -90.4581 285° West 235 270 15,300 864 Climbing Houston Center
Mon 04:54:35 PM 30.3119 -90.5200 291° West 223 257 16,800 1,500 Climbing Houston Center
Mon 04:55:37 PM 30.3736 -90.5469 339° North 199 229 18,400 1,500 Climbing Houston Center
Mon 04:56:39 PM 30.4250 -90.5706 338° Northwest 198 228 19,900 1,790 Climbing Houston Center
Mon 04:57:41 PM 30.4764 -90.5922 340° North 198 228 22,100 1,500 Climbing Houston Center
Mon 04:58:43 PM 30.5267 -90.6047 348° North 188 216 23,000 435 Climbing Houston Center
Mon 04:59:45 PM 30.5756 -90.6558 318° Northwest 230 265 23,000 387 Level Houston Center
Mon 05:00:47 PM 30.6272 -90.7078 319° Northwest 243 280 23,800 484 Climbing Houston Center
Mon 05:01:49 PM 30.6864 -90.7675 319° Northwest 237 273 24,000 145 Climbing Houston Center
Mon 05:02:51 PM 30.7397 -90.8156 322° Northwest 240 276 24,100  Climbing Houston Center
Mon 05:03:53 PM 30.7825 -90.8758 310° West 245 282 24,000 -48 Descending Houston Center
Mon 05:04:56 PM 30.8167 -90.9433 301° West 244 281 24,000  Level Houston Center
Mon 05:05:58 PM 30.8425 -91.0164 292° West 243 280 24,000 48 Level Houston Center
Mon 05:07:00 PM 30.8747 -91.0858 298° West 244 281 24,100  Climbing Houston Center
Mon 05:08:02 PM 30.9189 -91.1594 305° West 246 283 24,000 -97 Descending Houston Center
Mon 05:09:04 PM 30.9617 -91.2219 309° West 248 285 23,900  Descending Houston Center
Mon 05:10:06 PM 30.9964 -91.2914 300° West 249 287 24,000 48 Climbing Houston Center
Mon 05:11:08 PM 31.0322 -91.3669 299° West 248 285 24,000 -48 Level Houston Center
Mon 05:12:10 PM 31.0742 -91.4436 303° West 250 288 23,900 -48 Descending Houston Center
Mon 05:13:12 PM 31.1133 -91.5114 304° West 252 290 23,900  Level Houston Center
Mon 05:14:14 PM 31.1572 -91.5775 308° West 256 295 23,900  Level Houston Center
Mon 05:15:16 PM 31.1958 -91.6469 303° West 257 296 23,900  Level Houston Center
Mon 05:16:18 PM 31.2386 -91.7333 300° West 257 296 23,900  Level Houston Center
Mon 05:17:20 PM 31.2764 -91.8047 302° West 259 298 23,900  Level Houston Center
Mon 05:18:22 PM 31.3181 -91.8736 305° West 260 299 23,900 48 Level Houston Center
Mon 05:19:25 PM 31.3553 -91.9458 301° West 260 299 24,000 48 Climbing Houston Center
Mon 05:20:27 PM 31.3942 -92.0175 302° West 262 302 24,000 -48 Level Houston Center
Mon 05:21:29 PM 31.4347 -92.0978 301° West 262 302 23,900  Descending Houston Center
Mon 05:22:31 PM 31.4717 -92.1714 300° West 264 304 24,000 48 Climbing Houston Center
Mon 05:23:33 PM 31.5058 -92.2467 298° West 263 303 24,000 48 Level Houston Center
Mon 05:24:35 PM 31.5456 -92.3200 302° West 266 306 24,100  Climbing Houston Center
Mon 05:25:37 PM 31.6000 -92.4014 308° West 265 305 24,000 -48 Descending Houston Center
Mon 05:26:39 PM 31.6458 -92.4708 308° West 270 311 24,000 -48 Level Houston Center
Mon 05:27:41 PM 31.6750 -92.5514 293° West 269 310 23,900 -48 Descending Houston Center
Mon 05:28:43 PM 31.7164 -92.6258 303° West 272 313 23,900 48 Level Houston Center
Mon 05:29:45 PM 31.7531 -92.7011 300° West 267 307 24,000 48 Climbing Houston Center
Mon 05:30:47 PM 31.7911 -92.7781 300° West 271 312 24,000  Level Houston Center
Mon 05:31:50 PM 31.8386 -92.8678 302° West 270 311 24,000  Level Houston Center
Mon 05:32:52 PM 31.8789 -92.9436 302° West 272 313 24,000  Level Houston Center
Mon 05:33:54 PM 31.9222 -93.0228 303° West 272 313 24,000  Level Houston Center
Mon 05:34:56 PM 31.9617 -93.0989 301° West 275 316 24,000  Level Houston Center
Mon 05:35:58 PM 32.0028 -93.1753 302° West 276 318 24,000  Level Houston Center
Mon 05:37:00 PM 32.0422 -93.2514 301° West 274 315 24,000  Level Houston Center
Mon 05:38:02 PM 32.0906 -93.3428 302° West 275 316 24,000  Level Houston Center
Mon 05:39:10 PM 32.1314 -93.4247 300° West 267 307 24,000  Level Fort Worth Center
Mon 05:40:10 PM 32.1733 -93.4939 306° West 267 307 24,000  Level Fort Worth Center
Mon 05:41:10 PM 32.2133 -93.5733 301° West 267 307 24,000  Level Fort Worth Center
Mon 05:42:10 PM 32.2556 -93.6550 301° West 273 314 24,000  Level Fort Worth Center
Mon 05:43:10 PM 32.2953 -93.7344 301° West 273 314 24,000  Level Fort Worth Center
Mon 05:44:10 PM 32.3331 -93.8114 300° West 273 314 24,000  Level Fort Worth Center
Mon 05:45:10 PM 32.3731 -93.8936 300° West 273 314 24,000  Level Fort Worth Center
Mon 05:46:10 PM 32.4125 -93.9658 303° West 273 314 24,000  Level Fort Worth Center
Mon 05:47:10 PM 32.4522 -94.0456 301° West 273 314 24,000  Level Fort Worth Center
Mon 05:48:10 PM 32.4919 -94.1228 301° West 273 314 24,000  Level Fort Worth Center
Mon 05:49:10 PM 32.5317 -94.2028 301° West 273 314 24,000  Level Fort Worth Center
Mon 05:50:10 PM 32.5711 -94.2803 301° West 273 314 24,000  Level Fort Worth Center
Mon 05:51:11 PM 32.6106 -94.3603 300° West 273 314 24,000  Level Fort Worth Center
Mon 05:52:10 PM 32.6500 -94.4403 300° West 273 314 24,000  Level Fort Worth Center
Mon 05:53:10 PM 32.6894 -94.5181 301° West 278 320 24,000  Level Fort Worth Center
Mon 05:54:10 PM 32.7289 -94.5958 301° West 278 320 24,000  Level Fort Worth Center
Mon 05:55:10 PM 32.7681 -94.6736 301° West 278 320 24,000  Level Fort Worth Center
Mon 05:56:10 PM 32.8053 -94.7539 299° West 283 326 24,000  Level Fort Worth Center
Mon 05:57:10 PM 32.8467 -94.8319 302° West 283 326 24,000  Level Fort Worth Center
Mon 05:58:10 PM 32.8878 -94.9097 302° West 288 331 24,000 -400 Level Fort Worth Center
Mon 05:59:10 PM 32.9292 -94.9928 301° West 288 331 23,200 -1,050 Descending Fort Worth Center
Mon 06:00:10 PM 32.9703 -95.0733 301° West 288 331 21,900 -1,250 Descending Fort Worth Center
Mon 06:01:10 PM 33.0136 -95.1567 302° West 288 331 20,700 -1,200 Descending Fort Worth Center
Mon 06:02:10 PM 33.0525 -95.2375 300° West 288 331 19,500 -1,250 Descending Fort Worth Center
Mon 06:03:10 PM 33.0914 -95.3158 301° West 288 331 18,200 -750 Descending Fort Worth Center
Mon 06:04:10 PM 33.1261 -95.3919 299° West 283 326 18,000 -100 Descending Fort Worth Center
Mon 06:05:10 PM 33.1608 -95.4681 299° West 270 311 18,000  Level Fort Worth Center
Mon 06:06:10 PM 33.1994 -95.5442 301° West 264 304 18,000 -50 Level Fort Worth Center
Mon 06:07:10 PM 33.2317 -95.6131 299° West 268 308 17,900 -650 Descending Fort Worth Center
Mon 06:08:10 PM 33.2725 -95.6992 300° West 273 314 16,700 -1,300 Descending Fort Worth Center
Mon 06:09:10 PM 33.3089 -95.7681 302° West 273 314 15,300 -1,600 Descending Fort Worth Center
Mon 06:10:10 PM 33.3519 -95.8517 302° West 268 308 13,500 -1,550 Descending Fort Worth Center
Mon 06:11:10 PM 33.3861 -95.9158 303° West 268 308 12,200 -1,537 Descending Fort Worth Center
Mon 06:12:11 PM 33.4203 -95.9922 298° West 257 296 10,400 -1,700 Descending Fort Worth Center
Mon 06:13:10 PM 33.4461 -96.0542 297° West 237 273 8,800 -1,664 Descending Fort Worth Center
Mon 06:14:10 PM 33.4822 -96.1258 301° West 232 267 7,100 -1,250 Descending Fort Worth Center
Mon 06:15:10 PM 33.5100 -96.1778 303° West 213 245 6,300 -1,050 Descending Fort Worth Center
Mon 06:16:10 PM 33.5397 -96.2422 299° West 207 238 5,000 -1,150 Descending Fort Worth Center
Mon 06:17:10 PM 33.5611 -96.2992 294° West 207 238 4,000 -500 Descending Fort Worth Center
Mon 06:18:10 PM 33.5867 -96.3611 296° West 195 224 4,000 -150 Level Fort Worth Center
Mon 06:19:10 PM 33.6081 -96.4083 299° West 188 216 3,700 -800 Descending Fort Worth Center
Mon 06:20:10 PM 33.6336 -96.4753 295° West 188 216 2,400 -700 Descending Fort Worth Center
Mon 06:21:10 PM 33.6547 -96.5225 298° West 194 223 2,300 50 Descending Fort Worth Center
Mon 06:22:10 PM 33.6739 -96.5747 294° West 174 200 2,500  Climbing Fort Worth Center
Mon 06:23:10 PM 33.6908 -96.6172 296° West 156 180 2,300 -100 Descending Fort Worth Center
Mon 06:24:10 PM 33.7161 -96.6419 321° Northwest 134 154 2,300 -150 Level Fort Worth Center
Mon 06:25:10 PM 33.7517 -96.6592 338° Northwest 128 147 2,000 850 Descending Fort Worth Center
Mon 06:26:10 PM 33.7831 -96.6789 332° Northwest 128 147 4,000 2,000 Climbing Fort Worth Center

Login

Don't have an account? Register now (free) for customized features, flight alerts, and more!